Time;durP1;ratioP1;P1;durP2;ratioP2;P2;SDS_P1;SDS_P2;PMS_P1;PMS_P2;Temp;Humidity;BMP_temperature;BMP_pressure;BME280_temperature;BME280_humidity;BME280_pressure;Samples;Min_cycle;Max_cycle;Signal;HPM_P1;HPM_P2
2021/11/24 09:24:57;;;;;;;4.60;2.10;;;8.20;99.00;;;;;;5108687;27;20388;-85
2021/11/24 09:27:30;;;;;;;2.93;2.07;;;8.20;99.90;;;;;;5083282;28;20283;-83
2021/11/24 09:30:01;;;;;;;4.60;2.10;;;8.20;99.90;;;;;;5080404;28;20297;-82
2021/11/24 09:32:28;;;;;;;3.13;1.80;;;8.10;99.90;;;;;;5079138;28;20078;-81
2021/11/24 09:34:53;;;;;;;2.93;1.80;;;8.20;99.90;;;;;;5078992;28;20044;-84
2021/11/24 09:37:19;;;;;;;3.03;2.00;;;8.30;99.90;;;;;;5079368;28;20051;-83
2021/11/24 09:39:45;;;;;;;2.97;2.00;;;8.30;99.90;;;;;;5085488;28;20036;-83
2021/11/24 09:42:16;;;;;;;2.47;1.73;;;8.40;99.90;;;;;;5085783;28;20074;-80
2021/11/24 09:44:46;;;;;;;3.57;1.87;;;8.40;99.90;;;;;;5085735;28;20048;-78
2021/11/24 09:47:12;;;;;;;4.67;1.63;;;8.50;99.90;;;;;;5085962;28;20047;-78
2021/11/24 09:49:39;;;;;;;4.60;2.23;;;8.50;99.90;;;;;;5085219;28;20048;-81
2021/11/24 09:52:06;;;;;;;2.53;1.60;;;8.60;99.90;;;;;;5085012;28;20103;-78
2021/11/24 09:54:32;;;;;;;4.17;1.80;;;8.60;99.90;;;;;;5085181;28;20056;-79
2021/11/24 09:56:58;;;;;;;6.00;2.23;;;8.70;99.90;;;;;;5083472;28;20464;-76
2021/11/24 09:59:23;;;;;;;2.93;1.80;;;8.70;99.90;;;;;;5084053;28;20522;-81
2021/11/24 10:01:49;;;;;;;5.60;1.77;;;8.80;99.90;;;;;;5085652;28;20061;-82
2021/11/24 10:04:15;;;;;;;4.47;1.87;;;8.80;99.90;;;;;;5084164;28;20190;-80
2021/11/24 10:06:41;;;;;;;3.03;1.80;;;8.90;99.90;;;;;;5084274;28;20040;-81
2021/11/24 10:09:11;;;;;;;3.13;1.90;;;9.00;99.90;;;;;;5086037;28;20079;-79
2021/11/24 10:11:37;;;;;;;2.80;2.03;;;9.10;99.90;;;;;;5084920;28;20048;-77
2021/11/24 10:14:03;;;;;;;3.10;1.70;;;9.10;99.90;;;;;;5087185;28;20048;-80
2021/11/24 10:16:32;;;;;;;2.43;1.40;;;9.20;99.80;;;;;;5088368;28;20131;-82
2021/11/24 10:19:09;;;;;;;4.47;1.73;;;9.30;99.70;;;;;;5086301;28;20503;-79
2021/11/24 10:21:51;;;;;;;4.17;2.13;;;9.30;99.50;;;;;;5084305;28;20525;-79
2021/11/24 10:24:25;;;;;;;2.75;1.60;;;9.40;99.50;;;;;;5088981;28;20122;-79
2021/11/24 10:26:51;;;;;;;2.33;1.70;;;9.40;99.20;;;;;;5106194;28;20127;-80
2021/11/24 10:29:17;;;;;;;4.23;1.87;;;9.50;99.20;;;;;;5085254;28;20075;-77
2021/11/24 10:31:45;;;;;;;3.73;1.90;;;9.50;98.90;;;;;;5082213;28;21028;-80
2021/11/24 10:34:24;;;;;;;3.53;2.20;;;9.50;98.40;;;;;;5082819;28;20045;-78
2021/11/24 10:37:07;;;;;;;4.23;2.10;;;9.50;98.20;;;;;;5070430;28;20068;-78
2021/11/24 10:39:37;;;;;;;5.50;2.80;;;9.40;98.40;;;;;;5069367;28;20053;-79
2021/11/24 10:42:07;;;;;;;2.83;2.17;;;9.40;98.30;;;;;;5070332;28;20044;-78
2021/11/24 10:44:34;;;;;;;5.80;2.03;;;9.40;98.30;;;;;;5070998;28;20645;-79
2021/11/24 10:47:03;;;;;;;4.07;2.20;;;9.40;98.50;;;;;;5069274;28;20040;-79
2021/11/24 10:49:42;;;;;;;4.70;2.40;;;9.30;98.40;;;;;;5071041;28;20070;-81
2021/11/24 10:52:18;;;;;;;4.37;2.70;;;9.30;97.90;;;;;;5070442;28;20560;-78
2021/11/24 10:55:14;;;;;;;3.93;2.53;;;9.30;97.70;;;;;;5070307;28;20431;-79
2021/11/24 10:58:02;;;;;;;3.23;2.47;;;9.20;97.70;;;;;;5058887;28;20060;-79
2021/11/24 13:13:11;;;;;;;5.13;3.60;;;8.90;95.70;;;;;;5036133;27;1873989;-75
2021/11/24 13:15:37;;;;;;;7.40;3.67;;;8.80;97.00;;;;;;5105460;28;20044;-75
2021/11/24 13:18:03;;;;;;;6.63;4.57;;;8.80;97.30;;;;;;5088057;28;20051;-75
2021/11/24 13:20:31;;;;;;;4.30;3.33;;;8.80;97.80;;;;;;5087560;28;20089;-78
2021/11/24 13:22:59;;;;;;;5.37;3.70;;;8.80;98.00;;;;;;5087864;28;20040;-75
2021/11/24 13:25:28;;;;;;;4.37;3.80;;;8.80;98.10;;;;;;5087668;28;20052;-77
2021/11/24 13:28:14;;;;;;;5.23;3.97;;;8.80;98.30;;;;;;5102053;28;20069;-82
2021/11/24 13:30:50;;;;;;;7.23;4.77;;;8.80;98.40;;;;;;5075686;28;20045;-79
2021/11/24 13:33:24;;;;;;;6.20;4.63;;;8.90;98.60;;;;;;5074808;28;20513;-80
2021/11/24 13:35:56;;;;;;;4.87;3.70;;;8.90;99.10;;;;;;5066966;28;20063;-74
2021/11/24 13:38:22;;;;;;;5.00;3.87;;;9.00;98.60;;;;;;5067585;28;20097;-78
2021/11/24 13:40:51;;;;;;;6.03;4.13;;;9.00;98.60;;;;;;5085076;28;20488;-75
2021/11/24 13:43:30;;;;;;;7.10;4.53;;;9.00;98.60;;;;;;5066500;28;20089;-73
2021/11/24 13:45:57;;;;;;;7.43;3.57;;;9.00;98.40;;;;;;5085353;28;20092;-76
2021/11/24 13:48:23;;;;;;;7.80;3.73;;;9.00;98.50;;;;;;5067134;28;20131;-75
2021/11/24 13:51:04;;;;;;;5.47;4.03;;;9.00;98.50;;;;;;5084636;28;20090;-75
2021/11/24 13:53:36;;;;;;;5.82;3.97;;;9.00;98.60;;;;;;5067884;28;20040;-80
2021/11/24 13:56:20;;;;;;;5.75;4.45;;;9.00;98.60;;;;;;5085060;28;20037;-79
2021/11/24 13:59:23;;;;;;;10.53;5.50;;;9.00;98.50;;;;;;5067553;28;20412;-80
2021/11/24 14:01:49;;;;;;;5.30;3.73;;;9.00;98.40;;;;;;5068643;28;20052;-80
2021/11/24 14:04:28;;;;;;;6.10;4.20;;;9.00;98.60;;;;;;5066509;28;20131;-80
2021/11/24 14:07:07;;;;;;;4.80;3.40;;;9.00;98.40;;;;;;5067058;28;20040;-80
2021/11/24 14:09:33;;;;;;;8.00;3.73;;;9.00;98.40;;;;;;5084866;28;20052;-80
2021/11/24 14:12:20;;;;;;;7.10;4.10;;;9.00;98.20;;;;;;5062465;28;20150;-80
2021/11/24 14:14:57;;;;;;;6.90;4.67;;;9.00;98.00;;;;;;5062927;28;20575;-78
2021/11/24 14:17:58;;;;;;;7.77;4.23;;;9.00;98.30;;;;;;5064048;28;20052;-78
2021/11/24 14:20:27;;;;;;;4.70;2.83;;;8.90;98.20;;;;;;5064395;28;20508;-79
2021/11/24 14:22:55;;;;;;;6.40;2.67;;;8.90;98.40;;;;;;5062873;28;20091;-78
2021/11/24 14:25:24;;;;;;;5.20;3.17;;;8.90;98.20;;;;;;5038360;28;20085;-79
2021/11/24 14:27:51;;;;;;;6.87;3.80;;;8.90;98.10;;;;;;5029474;28;20045;-75
2021/11/24 14:30:21;;;;;;;3.50;2.73;;;8.90;98.10;;;;;;5032966;28;20046;-76
2021/11/24 14:32:47;;;;;;;3.93;2.93;;;8.90;98.10;;;;;;5028963;28;20053;-78
2021/11/24 14:35:16;;;;;;;5.33;3.20;;;8.90;98.00;;;;;;5030302;28;20199;-74
2021/11/24 14:37:43;;;;;;;4.63;3.00;;;8.90;97.80;;;;;;5029807;28;20037;-73
2021/11/24 14:40:10;;;;;;;5.37;3.20;;;8.80;97.90;;;;;;5030350;28;20038;-77
2021/11/24 14:42:36;;;;;;;4.50;3.00;;;8.90;97.90;;;;;;5029993;28;20060;-73
2021/11/24 14:45:03;;;;;;;4.87;2.77;;;8.80;97.90;;;;;;5030469;28;20041;-74
2021/11/24 14:47:28;;;;;;;4.77;3.50;;;8.80;97.80;;;;;;5029764;28;20046;-73
2021/11/24 14:49:57;;;;;;;3.30;2.67;;;8.80;97.70;;;;;;5031038;28;20136;-77
2021/11/24 14:52:23;;;;;;;3.47;2.97;;;8.80;97.80;;;;;;5030224;28;20140;-81
2021/11/24 14:54:49;;;;;;;3.30;2.77;;;8.80;97.90;;;;;;5030038;28;20042;-82
2021/11/24 14:57:14;;;;;;;4.90;2.63;;;8.80;97.80;;;;;;5031041;28;20068;-81
2021/11/24 14:59:40;;;;;;;3.97;2.70;;;8.80;97.60;;;;;;5030062;28;20050;-83
2021/11/24 15:02:07;;;;;;;4.47;2.20;;;8.70;97.70;;;;;;5031056;28;20153;-81
2021/11/24 15:04:35;;;;;;;3.07;2.57;;;8.70;97.60;;;;;;5029460;28;20139;-77
2021/11/24 15:07:02;;;;;;;4.30;2.63;;;8.70;97.80;;;;;;5034723;28;20049;-74
2021/11/24 15:09:27;;;;;;;3.00;2.10;;;8.70;97.80;;;;;;5040126;28;20052;-75
2021/11/24 15:11:53;;;;;;;3.67;1.90;;;8.70;97.70;;;;;;5037818;28;20123;-73
2021/11/24 15:14:18;;;;;;;5.37;2.17;;;8.70;97.60;;;;;;5029834;28;20132;-74
2021/11/24 15:16:44;;;;;;;2.93;2.03;;;8.70;97.60;;;;;;5030220;28;20044;-73
2021/11/24 15:19:12;;;;;;;3.77;2.00;;;8.70;97.50;;;;;;5030531;28;20041;-77
2021/11/24 15:21:40;;;;;;;3.93;2.40;;;8.70;97.50;;;;;;5029282;28;20136;-76
2021/11/24 15:24:06;;;;;;;3.17;1.83;;;8.70;97.60;;;;;;5030605;28;20052;-73
2021/11/24 15:26:32;;;;;;;3.83;1.80;;;8.70;97.60;;;;;;5030101;28;20179;-77
2021/11/24 15:28:58;;;;;;;3.13;2.03;;;8.70;97.60;;;;;;5029504;28;20168;-74
2021/11/24 15:31:25;;;;;;;3.80;1.93;;;8.70;97.50;;;;;;5028535;28;20049;-74
2021/11/24 15:33:51;;;;;;;3.97;2.30;;;8.70;97.60;;;;;;5033607;28;20081;-74
2021/11/24 15:36:17;;;;;;;3.23;2.20;;;8.70;97.60;;;;;;5036142;28;20521;-78
2021/11/24 15:38:42;;;;;;;4.93;2.20;;;8.70;97.60;;;;;;5039069;28;20045;-77
2021/11/24 15:41:08;;;;;;;3.90;1.90;;;8.70;97.60;;;;;;5029655;28;20060;-79
2021/11/24 15:43:34;;;;;;;3.57;2.10;;;8.70;97.50;;;;;;5028011;28;20137;-80
2021/11/24 15:46:00;;;;;;;3.80;1.80;;;8.70;97.50;;;;;;5028425;28;20067;-76
2021/11/24 15:48:28;;;;;;;2.80;1.90;;;8.70;97.60;;;;;;5027094;28;20431;-75
2021/11/24 15:50:55;;;;;;;4.13;1.90;;;8.70;97.50;;;;;;5027998;28;20053;-78
2021/11/24 15:53:20;;;;;;;5.60;2.90;;;8.70;97.50;;;;;;5027752;28;20140;-80
2021/11/24 15:55:46;;;;;;;4.03;2.60;;;8.70;97.60;;;;;;5028303;28;20129;-78
2021/11/24 15:58:13;;;;;;;3.40;2.30;;;8.70;97.50;;;;;;5027666;28;20076;-80
2021/11/24 16:00:39;;;;;;;3.57;2.50;;;8.70;97.40;;;;;;5027722;28;20126;-82
2021/11/24 16:03:06;;;;;;;5.13;2.80;;;8.60;97.40;;;;;;5028414;28;20128;-78
2021/11/24 16:05:31;;;;;;;5.07;2.60;;;8.60;97.50;;;;;;5028829;28;20439;-80
2021/11/24 16:07:57;;;;;;;5.00;2.40;;;8.50;97.50;;;;;;5027825;28;20180;-78
2021/11/24 16:10:22;;;;;;;3.20;2.40;;;8.50;97.50;;;;;;5028257;28;20049;-77
2021/11/24 16:12:48;;;;;;;4.70;2.40;;;8.50;97.60;;;;;;5026915;28;20054;-73
2021/11/24 16:15:14;;;;;;;3.57;2.07;;;8.50;97.70;;;;;;5027274;28;20049;-71
2021/11/24 16:17:39;;;;;;;4.83;3.13;;;8.50;97.60;;;;;;5027817;28;20060;-74
2021/11/24 16:20:06;;;;;;;4.10;2.30;;;8.50;97.40;;;;;;5027595;28;20167;-75
2021/11/24 16:22:31;;;;;;;4.40;2.57;;;8.50;97.40;;;;;;5028777;28;20148;-73
2021/11/24 16:24:57;;;;;;;4.17;2.40;;;8.50;97.40;;;;;;5028111;28;20194;-79
2021/11/24 16:27:23;;;;;;;7.40;2.20;;;8.40;97.30;;;;;;5027669;28;20041;-78
2021/11/24 16:29:58;;;;;;;3.63;2.20;;;8.50;97.30;;;;;;5027242;28;20046;-75
2021/11/24 16:32:24;;;;;;;5.90;2.70;;;8.40;97.10;;;;;;5026233;28;20057;-82
2021/11/24 16:34:50;;;;;;;3.63;2.30;;;8.30;97.20;;;;;;5028724;28;20490;-80
2021/11/24 16:37:15;;;;;;;3.93;2.60;;;8.30;97.40;;;;;;5027409;28;20049;-75
2021/11/24 16:39:41;;;;;;;4.10;2.43;;;8.40;97.40;;;;;;5026693;28;20498;-77
2021/11/24 16:42:07;;;;;;;7.60;6.57;;;8.40;97.30;;;;;;5028606;28;20489;-73
2021/11/24 16:44:32;;;;;;;5.23;3.10;;;8.40;97.40;;;;;;5026205;28;20064;-74
2021/11/24 16:46:58;;;;;;;4.17;2.13;;;8.50;97.30;;;;;;5028088;28;20103;-72
2021/11/24 16:49:23;;;;;;;2.93;2.13;;;8.50;97.10;;;;;;5026778;28;20387;-76
2021/11/24 16:51:49;;;;;;;3.57;2.30;;;8.50;97.00;;;;;;5027818;28;20401;-77
2021/11/24 16:54:14;;;;;;;3.70;2.33;;;8.50;97.00;;;;;;5026900;28;20540;-79
2021/11/24 16:56:40;;;;;;;4.77;2.80;;;8.50;97.00;;;;;;5028025;28;20051;-78
2021/11/24 16:59:06;;;;;;;4.07;2.70;;;8.50;96.90;;;;;;5026411;28;20466;-75
2021/11/24 17:01:32;;;;;;;5.47;2.90;;;8.50;96.90;;;;;;5028009;28;20124;-76
2021/11/24 17:03:57;;;;;;;7.97;4.50;;;8.40;96.80;;;;;;5028286;28;20487;-75
2021/11/24 17:06:23;;;;;;;5.13;2.70;;;8.40;96.80;;;;;;5027622;28;20083;-75
2021/11/24 17:08:48;;;;;;;5.33;2.83;;;8.40;96.50;;;;;;5028122;28;20037;-76
2021/11/24 17:11:14;;;;;;;4.27;3.10;;;8.40;96.70;;;;;;5030102;28;20041;-75
2021/11/24 17:13:40;;;;;;;3.57;3.03;;;8.40;97.10;;;;;;5047184;28;20077;-76
2021/11/24 17:16:05;;;;;;;3.73;1.97;;;8.50;96.60;;;;;;5029836;28;20048;-77
2021/11/24 17:18:31;;;;;;;3.77;2.17;;;8.40;96.50;;;;;;5029814;28;20060;-75
2021/11/24 17:20:57;;;;;;;2.53;1.80;;;8.50;96.50;;;;;;5047093;28;20048;-76
2021/11/24 17:23:23;;;;;;;3.07;1.90;;;8.40;96.40;;;;;;5029679;28;20048;-74
2021/11/24 17:25:49;;;;;;;4.23;1.73;;;8.40;96.40;;;;;;5030080;28;20203;-76
2021/11/24 17:28:17;;;;;;;2.57;1.90;;;8.40;96.30;;;;;;5029226;28;20045;-75
2021/11/24 17:30:44;;;;;;;3.30;1.90;;;8.30;96.30;;;;;;5047290;28;20045;-76
2021/11/24 19:09:11;;;;;;;3.03;2.30;;;7.50;95.70;;;;;;5089492;27;20497;-81
2021/11/24 19:11:37;;;;;;;3.97;2.67;;;7.50;95.70;;;;;;5097412;28;20328;-81
2021/11/24 19:14:02;;;;;;;4.77;2.80;;;7.50;96.00;;;;;;5091274;28;20294;-81
2021/11/24 19:16:28;;;;;;;4.53;3.03;;;7.40;96.40;;;;;;5086092;28;20048;-81
2021/11/24 19:18:58;;;;;;;5.07;3.10;;;7.50;96.70;;;;;;5086064;28;20041;-79
2021/11/24 19:21:24;;;;;;;4.57;2.70;;;7.50;96.90;;;;;;5083944;28;20059;-77
2021/11/24 19:23:52;;;;;;;3.77;2.60;;;7.50;97.10;;;;;;5088390;28;20237;-76
2021/11/24 19:26:18;;;;;;;5.17;2.90;;;7.60;97.20;;;;;;5094260;28;20048;-77
2021/11/24 19:28:44;;;;;;;4.47;3.77;;;7.60;97.30;;;;;;5100981;28;20165;-78
2021/11/24 19:31:10;;;;;;;5.87;5.20;;;7.70;97.30;;;;;;5106668;28;20048;-79
2021/11/24 19:33:38;;;;;;;6.27;3.00;;;7.70;97.40;;;;;;5099138;28;20461;-81
2021/11/24 19:36:04;;;;;;;5.47;3.20;;;7.80;97.40;;;;;;5093967;28;20063;-77
2021/11/24 19:38:30;;;;;;;5.23;3.13;;;7.80;97.30;;;;;;5092393;28;20055;-76
2021/11/24 19:40:59;;;;;;;5.40;3.77;;;7.90;97.20;;;;;;5089647;28;20044;-75
2021/11/24 19:43:27;;;;;;;4.10;3.30;;;7.90;97.10;;;;;;5090442;28;20032;-78
2021/11/24 19:45:54;;;;;;;4.70;3.20;;;7.90;97.10;;;;;;5089145;28;20060;-77
2021/11/24 19:48:20;;;;;;;4.03;3.07;;;7.90;97.30;;;;;;5083803;28;20609;-78
2021/11/24 19:50:46;;;;;;;4.90;3.53;;;7.80;97.10;;;;;;5084452;28;20491;-79
2021/11/24 19:53:12;;;;;;;4.93;3.43;;;7.80;97.10;;;;;;5085281;28;20150;-79
2021/11/24 19:55:38;;;;;;;7.97;3.70;;;7.80;97.00;;;;;;5082941;28;20122;-79
2021/11/24 19:58:05;;;;;;;5.90;5.20;;;7.70;96.90;;;;;;5084945;28;20051;-80
2021/11/24 20:00:31;;;;;;;6.07;4.37;;;7.70;97.10;;;;;;5085231;28;20048;-82
2021/11/24 20:02:58;;;;;;;6.60;4.30;;;7.70;96.90;;;;;;5083597;28;20070;-85
